Time;durP1;ratioP1;P1;durP2;ratioP2;P2;SDS_P1;SDS_P2;PMS_P1;PMS_P2;Temp;Humidity;BMP_temperature;BMP_pressure;BME280_temperature;BME280_humidity;BME280_pressure;Samples;Min_cycle;Max_cycle;Signal;HPM_P1;HPM_P2
2022/07/17 00:00:23;;;;;;;0.30;0.30;;;12.20;99.90;;;;;;5053479;28;20489;-75
2022/07/17 00:02:50;;;;;;;4.75;0.70;;;12.20;99.90;;;;;;5056531;28;20481;-74
2022/07/17 00:05:18;;;;;;;2.20;0.80;;;12.30;99.90;;;;;;5056785;28;20103;-74
2022/07/17 00:07:47;;;;;;;0.55;0.40;;;12.30;99.90;;;;;;5056714;28;20021;-74
2022/07/17 00:10:14;;;;;;;0.70;0.45;;;12.40;99.90;;;;;;5056790;28;20131;-75
2022/07/17 00:12:41;;;;;;;0.45;0.28;;;12.50;99.90;;;;;;5056288;28;20438;-74
2022/07/17 00:15:09;;;;;;;0.35;0.30;;;12.50;99.90;;;;;;5056210;28;20024;-74
2022/07/17 00:17:36;;;;;;;0.40;0.40;;;12.60;99.90;;;;;;5056476;28;20025;-74
2022/07/17 00:20:04;;;;;;;0.60;0.30;;;12.70;99.90;;;;;;5056479;28;20025;-73
2022/07/17 00:22:32;;;;;;;1.13;0.40;;;12.70;99.90;;;;;;5056380;28;20037;-74
2022/07/17 00:24:59;;;;;;;1.60;0.60;;;12.70;99.90;;;;;;5056488;28;20022;-74
2022/07/17 00:27:26;;;;;;;0.80;0.50;;;12.70;99.90;;;;;;5056266;28;20025;-75
2022/07/17 00:29:54;;;;;;;0.82;0.28;;;12.80;99.90;;;;;;5056358;28;20051;-74
2022/07/17 00:32:23;;;;;;;0.55;0.40;;;12.80;99.90;;;;;;5056016;28;20052;-75
2022/07/17 00:34:51;;;;;;;0.60;0.30;;;12.80;99.90;;;;;;5056231;28;20385;-74
2022/07/17 00:37:18;;;;;;;0.35;0.30;;;12.90;99.90;;;;;;5055876;28;20049;-74
2022/07/17 00:39:46;;;;;;;0.75;0.35;;;12.90;99.90;;;;;;5056283;28;20025;-75
2022/07/17 00:42:15;;;;;;;0.65;0.40;;;12.90;99.90;;;;;;5055863;28;20036;-74
2022/07/17 00:44:44;;;;;;;1.80;0.50;;;13.00;99.90;;;;;;5055956;28;20090;-73
2022/07/17 00:47:15;;;;;;;3.45;0.75;;;13.10;99.90;;;;;;5056078;28;20553;-74
2022/07/17 00:49:43;;;;;;;0.63;0.32;;;13.10;99.90;;;;;;5056055;28;20024;-75
2022/07/17 00:52:11;;;;;;;3.47;0.50;;;13.20;99.90;;;;;;5055609;28;20044;-75
2022/07/17 00:54:40;;;;;;;2.05;0.35;;;13.30;99.90;;;;;;5055650;28;20024;-75
2022/07/17 00:57:10;;;;;;;2.42;0.40;;;13.40;99.90;;;;;;5056077;28;20021;-75
2022/07/17 00:59:39;;;;;;;0.68;0.50;;;13.40;99.90;;;;;;5055603;28;20032;-75
2022/07/17 01:02:07;;;;;;;4.05;0.47;;;13.40;99.90;;;;;;5055257;28;20052;-75
2022/07/17 01:04:36;;;;;;;0.52;0.30;;;13.40;99.90;;;;;;5055591;28;20036;-75
2022/07/17 01:07:05;;;;;;;0.80;0.40;;;13.50;99.90;;;;;;5055427;28;20052;-75
2022/07/17 01:09:33;;;;;;;0.68;0.65;;;13.50;99.90;;;;;;5055684;28;20021;-74
2022/07/17 01:12:01;;;;;;;0.60;0.40;;;13.60;99.90;;;;;;5054901;28;20021;-75
2022/07/17 01:14:28;;;;;;;1.67;0.85;;;13.70;99.90;;;;;;5055419;28;20028;-75
2022/07/17 01:16:56;;;;;;;0.52;0.30;;;13.70;99.90;;;;;;5055443;28;20024;-75
2022/07/17 01:19:23;;;;;;;0.70;0.32;;;13.80;99.90;;;;;;5055172;28;20045;-75
2022/07/17 01:21:51;;;;;;;0.80;0.38;;;13.90;99.90;;;;;;5055139;28;20028;-75
2022/07/17 01:24:19;;;;;;;2.90;0.40;;;13.90;99.90;;;;;;5055246;28;20104;-75
2022/07/17 01:26:49;;;;;;;1.63;0.50;;;13.90;99.90;;;;;;5055177;28;20104;-75
2022/07/17 01:29:17;;;;;;;0.52;0.25;;;14.00;99.90;;;;;;5055399;28;20067;-75
2022/07/17 01:31:45;;;;;;;0.55;0.40;;;14.00;99.90;;;;;;5055125;28;20055;-75
2022/07/17 01:34:13;;;;;;;0.68;0.43;;;14.00;99.90;;;;;;5054962;28;20036;-75
2022/07/17 01:36:41;;;;;;;0.80;0.35;;;14.10;99.90;;;;;;5054859;28;20036;-75
2022/07/17 01:39:08;;;;;;;1.90;0.50;;;14.10;99.90;;;;;;5054953;28;20053;-74
2022/07/17 01:41:35;;;;;;;2.92;0.35;;;14.30;99.90;;;;;;5054966;28;20067;-75
2022/07/17 01:44:04;;;;;;;0.30;0.22;;;14.40;99.90;;;;;;5054898;28;20021;-75
2022/07/17 01:46:31;;;;;;;1.17;0.50;;;14.60;99.90;;;;;;5055044;28;20048;-75
2022/07/17 01:49:00;;;;;;;2.30;0.30;;;14.60;99.90;;;;;;5054647;28;20025;-75
2022/07/17 01:51:28;;;;;;;0.52;0.45;;;14.50;99.90;;;;;;5054640;28;20075;-75
2022/07/17 01:53:56;;;;;;;0.30;0.30;;;14.60;99.90;;;;;;5054507;28;20025;-73
2022/07/17 01:56:23;;;;;;;1.25;0.40;;;14.60;99.90;;;;;;5054795;28;20107;-74
2022/07/17 01:58:50;;;;;;;0.30;0.30;;;14.70;99.90;;;;;;5054365;28;20116;-75
2022/07/17 02:01:17;;;;;;;0.85;0.50;;;14.70;99.90;;;;;;5054194;28;20064;-75
2022/07/17 02:03:45;;;;;;;0.43;0.30;;;14.70;99.90;;;;;;5054466;28;20086;-74
2022/07/17 02:06:12;;;;;;;1.67;0.50;;;14.60;99.90;;;;;;5054507;28;20021;-74
2022/07/17 02:08:40;;;;;;;1.13;0.55;;;14.70;99.90;;;;;;5054501;28;20110;-75
2022/07/17 02:11:07;;;;;;;0.25;0.20;;;14.70;99.90;;;;;;5054359;28;20028;-75
2022/07/17 02:13:34;;;;;;;3.55;0.55;;;14.80;99.90;;;;;;5054168;28;20047;-75
2022/07/17 02:16:02;;;;;;;0.30;0.30;;;14.90;99.90;;;;;;5054240;28;20420;-75
2022/07/17 02:18:29;;;;;;;0.95;0.32;;;14.90;99.90;;;;;;5054133;28;20122;-75
2022/07/17 02:20:56;;;;;;;0.63;0.30;;;14.80;99.90;;;;;;5054148;28;20425;-74
2022/07/17 02:23:24;;;;;;;0.63;0.25;;;14.80;99.90;;;;;;5053469;28;20094;-74
2022/07/17 02:25:51;;;;;;;0.30;0.30;;;14.90;99.90;;;;;;5054002;28;20040;-75
2022/07/17 02:28:18;;;;;;;1.10;0.30;;;14.80;99.90;;;;;;5053976;28;20021;-75
2022/07/17 02:30:47;;;;;;;1.33;0.35;;;14.90;99.90;;;;;;5053846;28;20029;-74
2022/07/17 02:33:14;;;;;;;0.73;0.35;;;15.10;99.90;;;;;;5053786;28;20021;-75
2022/07/17 02:35:42;;;;;;;0.75;0.32;;;15.10;99.90;;;;;;5054038;28;20067;-75
2022/07/17 02:38:09;;;;;;;1.95;0.35;;;15.20;99.90;;;;;;5053925;28;20021;-75
2022/07/17 02:40:36;;;;;;;2.17;0.35;;;15.20;99.90;;;;;;5053712;28;20025;-75
2022/07/17 02:43:13;;;;;;;0.50;0.25;;;15.20;99.90;;;;;;5053998;28;20033;-75
2022/07/17 02:45:40;;;;;;;0.30;0.30;;;15.10;99.90;;;;;;5053728;28;20025;-75
2022/07/17 02:48:07;;;;;;;1.13;0.30;;;15.10;99.90;;;;;;5053798;28;20390;-75
2022/07/17 02:50:35;;;;;;;0.35;0.30;;;15.00;99.90;;;;;;5053642;28;20533;-75
2022/07/17 02:53:02;;;;;;;0.93;0.30;;;15.00;99.90;;;;;;5053469;28;20036;-75
2022/07/17 02:55:30;;;;;;;2.05;0.68;;;15.10;99.90;;;;;;5053632;28;20021;-75
2022/07/17 02:57:57;;;;;;;0.88;0.28;;;15.40;99.90;;;;;;5053585;28;20035;-74
2022/07/17 03:00:26;;;;;;;0.20;0.20;;;15.50;99.90;;;;;;5053601;28;20028;-76
2022/07/17 03:02:55;;;;;;;0.43;0.35;;;15.60;99.90;;;;;;5053358;28;20051;-76
2022/07/17 03:05:22;;;;;;;1.10;0.20;;;15.50;99.90;;;;;;5053376;28;20025;-74
2022/07/17 03:07:49;;;;;;;2.58;0.90;;;15.50;99.90;;;;;;5053447;28;20387;-74
2022/07/17 03:10:17;;;;;;;0.57;0.40;;;15.70;99.90;;;;;;5053422;28;20490;-74
2022/07/17 03:12:44;;;;;;;1.60;0.20;;;15.80;99.90;;;;;;5053219;28;20025;-75
2022/07/17 03:15:12;;;;;;;0.50;0.40;;;15.80;99.90;;;;;;5053420;28;20025;-74
2022/07/17 03:17:43;;;;;;;0.38;0.25;;;15.90;99.90;;;;;;5053312;28;20539;-75
2022/07/17 03:20:11;;;;;;;1.85;0.30;;;15.90;99.90;;;;;;5053814;28;20480;-75
2022/07/17 03:22:38;;;;;;;0.85;0.20;;;15.90;99.90;;;;;;5053262;28;20107;-75
2022/07/17 03:25:06;;;;;;;0.45;0.30;;;16.00;99.90;;;;;;5053354;28;20033;-75
2022/07/17 03:27:34;;;;;;;6.13;0.50;;;16.10;99.90;;;;;;5053308;28;20036;-75
2022/07/17 03:30:01;;;;;;;0.35;0.20;;;16.00;99.90;;;;;;5053374;28;20027;-75
2022/07/17 03:32:29;;;;;;;0.85;0.28;;;16.00;99.90;;;;;;5052979;28;20052;-75
2022/07/17 03:34:56;;;;;;;1.40;0.50;;;16.00;99.90;;;;;;5054745;28;20025;-74
2022/07/17 03:37:23;;;;;;;1.00;0.32;;;16.00;99.90;;;;;;5057179;28;20021;-74
2022/07/17 03:39:51;;;;;;;5.05;0.40;;;16.00;99.90;;;;;;5057222;28;20028;-74
2022/07/17 03:42:18;;;;;;;0.82;0.30;;;16.00;99.90;;;;;;5057151;28;20469;-75
2022/07/17 03:44:45;;;;;;;0.63;0.20;;;16.00;99.90;;;;;;5057309;28;20021;-75
2022/07/17 03:47:13;;;;;;;0.82;0.35;;;16.00;99.90;;;;;;5056986;28;20053;-74
2022/07/17 03:49:40;;;;;;;0.93;0.30;;;16.20;99.90;;;;;;5056880;28;20116;-74
2022/07/17 03:52:07;;;;;;;2.65;0.20;;;16.20;99.90;;;;;;5056930;28;20029;-74
2022/07/17 03:54:34;;;;;;;0.90;0.52;;;16.10;99.90;;;;;;5056360;28;20025;-75
2022/07/17 03:57:02;;;;;;;0.70;0.35;;;16.10;99.90;;;;;;5056277;28;20523;-74
2022/07/17 03:59:29;;;;;;;0.80;0.30;;;16.20;99.90;;;;;;5053520;28;20017;-74
2022/07/17 04:01:56;;;;;;;2.58;0.32;;;16.20;99.90;;;;;;5055822;28;20056;-73
2022/07/17 04:04:24;;;;;;;0.88;0.30;;;16.10;99.90;;;;;;5055132;28;20032;-75
2022/07/17 04:06:51;;;;;;;1.33;0.30;;;16.10;99.90;;;;;;5056685;28;20025;-75
2022/07/17 04:09:18;;;;;;;0.45;0.30;;;16.20;99.90;;;;;;5056568;28;20033;-75
2022/07/17 04:11:46;;;;;;;0.25;0.20;;;16.20;99.90;;;;;;5056446;28;20466;-76
2022/07/17 04:14:13;;;;;;;0.60;0.40;;;16.10;99.90;;;;;;5056291;28;20029;-77
2022/07/17 04:16:40;;;;;;;0.90;0.35;;;16.10;99.90;;;;;;5056725;28;20021;-76
2022/07/17 04:19:08;;;;;;;0.93;0.38;;;16.10;99.90;;;;;;5056377;28;20029;-77
2022/07/17 04:21:35;;;;;;;0.40;0.20;;;16.10;98.50;;;;;;5056082;28;20021;-76
2022/07/17 04:24:02;;;;;;;0.50;0.35;;;16.10;98.20;;;;;;5056438;28;20032;-77
2022/07/17 04:26:30;;;;;;;0.30;0.30;;;16.10;99.00;;;;;;5056383;28;20090;-75
2022/07/17 04:28:57;;;;;;;0.40;0.28;;;16.10;98.30;;;;;;5055847;28;20057;-76
2022/07/17 04:31:24;;;;;;;0.98;0.38;;;16.10;97.80;;;;;;5055565;28;20021;-77
2022/07/17 04:33:53;;;;;;;0.38;0.20;;;16.10;98.60;;;;;;5055353;28;20021;-76
2022/07/17 04:36:20;;;;;;;1.20;0.30;;;16.10;99.30;;;;;;5055546;28;20436;-76
2022/07/17 04:38:48;;;;;;;0.77;0.30;;;16.10;98.70;;;;;;5054946;28;20024;-73
2022/07/17 04:41:15;;;;;;;0.40;0.30;;;16.00;99.20;;;;;;5051548;28;20025;-76
2022/07/17 04:43:42;;;;;;;1.08;0.40;;;16.00;99.20;;;;;;5052881;28;20025;-77
2022/07/17 04:46:09;;;;;;;0.22;0.20;;;16.00;99.20;;;;;;5053192;28;20036;-76
2022/07/17 04:48:37;;;;;;;1.50;0.30;;;15.90;99.40;;;;;;5051870;28;20032;-77
2022/07/17 04:51:04;;;;;;;0.65;0.30;;;15.90;99.10;;;;;;5054282;28;20053;-75
2022/07/17 04:53:32;;;;;;;1.27;0.50;;;16.00;99.10;;;;;;5054129;28;20461;-76
2022/07/17 04:55:59;;;;;;;1.42;0.38;;;15.90;99.70;;;;;;5054382;28;20116;-76
2022/07/17 04:58:26;;;;;;;0.80;0.32;;;15.90;98.80;;;;;;5054221;28;20021;-76
2022/07/17 05:00:54;;;;;;;0.77;0.32;;;15.90;97.70;;;;;;5053873;28;20108;-77
2022/07/17 05:03:21;;;;;;;0.47;0.30;;;15.90;97.20;;;;;;5054088;28;20456;-76
2022/07/17 05:05:48;;;;;;;0.30;0.30;;;15.90;97.50;;;;;;5054074;28;20013;-77
2022/07/17 05:08:16;;;;;;;0.73;0.20;;;15.90;97.50;;;;;;5053957;28;20017;-76
2022/07/17 05:10:43;;;;;;;0.60;0.35;;;15.90;97.80;;;;;;5054453;28;20021;-75
2022/07/17 05:13:12;;;;;;;0.90;0.30;;;15.90;97.00;;;;;;5053734;28;20108;-74
2022/07/17 05:15:39;;;;;;;0.43;0.30;;;15.90;97.70;;;;;;5053327;28;20028;-73
2022/07/17 05:18:07;;;;;;;0.40;0.40;;;15.90;98.20;;;;;;5070223;28;20459;-74
2022/07/17 05:20:35;;;;;;;1.13;0.25;;;15.80;98.90;;;;;;5059746;28;20028;-75
2022/07/17 05:23:02;;;;;;;0.82;0.30;;;15.70;98.50;;;;;;5061951;28;20048;-74
2022/07/17 05:25:29;;;;;;;1.65;0.50;;;15.70;98.10;;;;;;5054343;28;20025;-74
2022/07/17 05:27:57;;;;;;;0.30;0.20;;;15.70;98.20;;;;;;5055206;28;20116;-73
2022/07/17 05:30:24;;;;;;;1.13;0.47;;;15.70;98.00;;;;;;5054807;28;20024;-74
2022/07/17 05:32:51;;;;;;;0.20;0.20;;;15.80;97.10;;;;;;5054442;28;20025;-73
2022/07/17 05:35:19;;;;;;;0.68;0.30;;;15.80;96.30;;;;;;5054413;28;20048;-73
2022/07/17 05:37:46;;;;;;;2.08;0.30;;;15.70;97.20;;;;;;5051073;28;20025;-75
2022/07/17 05:40:14;;;;;;;0.75;0.30;;;15.70;96.30;;;;;;5055256;28;20027;-73
2022/07/17 05:42:41;;;;;;;0.40;0.22;;;15.60;96.20;;;;;;5054145;28;20127;-75
2022/07/17 05:45:08;;;;;;;0.43;0.30;;;15.60;97.40;;;;;;5053308;28;20056;-76
2022/07/17 05:47:39;;;;;;;0.20;0.20;;;15.50;97.60;;;;;;5053822;28;20521;-74
2022/07/17 05:50:06;;;;;;;1.65;0.32;;;15.50;97.30;;;;;;5068393;28;20049;-76
2022/07/17 05:52:33;;;;;;;0.28;0.20;;;15.50;97.50;;;;;;5056530;28;20389;-75
2022/07/17 05:55:01;;;;;;;0.95;0.40;;;15.50;97.70;;;;;;5072959;28;20017;-77
2022/07/17 05:57:28;;;;;;;1.13;0.30;;;15.50;96.90;;;;;;5072284;28;20078;-75
2022/07/17 05:59:55;;;;;;;3.47;0.38;;;15.50;96.50;;;;;;5071198;28;20024;-74
2022/07/17 06:02:23;;;;;;;0.32;0.22;;;15.50;97.20;;;;;;5063183;28;20464;-74
2022/07/17 06:04:50;;;;;;;0.30;0.20;;;15.40;97.00;;;;;;5051963;28;20028;-75
2022/07/17 06:07:17;;;;;;;3.03;0.30;;;15.40;97.60;;;;;;5051925;28;20078;-76
2022/07/17 06:09:44;;;;;;;0.70;0.30;;;15.30;97.30;;;;;;5052528;28;20021;-75
2022/07/17 06:12:12;;;;;;;0.40;0.22;;;15.30;97.70;;;;;;5051151;28;20024;-74
2022/07/17 06:14:39;;;;;;;0.30;0.30;;;15.20;97.00;;;;;;5053581;28;20032;-76
2022/07/17 06:17:06;;;;;;;4.05;0.35;;;15.20;96.90;;;;;;5053297;28;20013;-74
2022/07/17 06:19:34;;;;;;;0.85;0.30;;;15.20;97.50;;;;;;5053700;28;20021;-74
2022/07/17 06:22:01;;;;;;;1.17;0.40;;;15.20;97.30;;;;;;5053923;28;20066;-77
2022/07/17 06:24:28;;;;;;;0.95;0.40;;;15.10;97.30;;;;;;5054651;28;20032;-75
2022/07/17 06:26:56;;;;;;;0.75;0.30;;;15.10;97.40;;;;;;5053990;28;20021;-74
2022/07/17 06:29:24;;;;;;;0.63;0.30;;;15.00;96.70;;;;;;5054186;28;20025;-75
2022/07/17 06:31:51;;;;;;;0.55;0.20;;;15.00;96.80;;;;;;5053894;28;20021;-76
2022/07/17 06:34:19;;;;;;;0.93;0.25;;;15.00;96.80;;;;;;5053682;28;20070;-74
2022/07/17 06:36:47;;;;;;;0.20;0.20;;;14.90;96.80;;;;;;5053746;28;20052;-74
2022/07/17 06:39:14;;;;;;;0.80;0.30;;;14.90;96.60;;;;;;5053400;28;20032;-73
2022/07/17 06:41:42;;;;;;;0.30;0.30;;;14.90;95.90;;;;;;5053656;28;20022;-74
2022/07/17 06:44:10;;;;;;;0.50;0.40;;;14.90;95.90;;;;;;5052929;28;20029;-75
2022/07/17 06:46:37;;;;;;;0.30;0.30;;;14.80;96.30;;;;;;5054230;28;20083;-75
2022/07/17 06:49:05;;;;;;;1.05;0.40;;;14.80;96.00;;;;;;5053554;28;20029;-76
2022/07/17 06:51:33;;;;;;;0.32;0.20;;;14.70;96.50;;;;;;5053500;28;20036;-75
2022/07/17 06:54:01;;;;;;;0.45;0.30;;;14.70;96.30;;;;;;5053661;28;20382;-75
2022/07/17 06:56:28;;;;;;;0.68;0.20;;;14.70;96.60;;;;;;5053484;28;20021;-74
2022/07/17 06:58:56;;;;;;;0.75;0.40;;;14.70;96.20;;;;;;5053550;28;20017;-75
2022/07/17 07:01:24;;;;;;;2.47;0.47;;;14.60;96.00;;;;;;5052577;28;20052;-75
2022/07/17 07:03:51;;;;;;;0.45;0.20;;;14.60;96.10;;;;;;5052443;28;20371;-76
2022/07/17 07:06:19;;;;;;;0.70;0.40;;;14.60;96.80;;;;;;5052536;28;20024;-72
2022/07/17 07:08:47;;;;;;;1.48;0.38;;;14.50;96.60;;;;;;5052659;28;20025;-75
2022/07/17 07:11:14;;;;;;;1.50;0.43;;;14.40;96.50;;;;;;5052561;28;20547;-75
2022/07/17 07:13:42;;;;;;;0.75;0.30;;;14.30;97.10;;;;;;5051978;28;20032;-75
2022/07/17 07:16:10;;;;;;;0.60;0.50;;;14.30;96.30;;;;;;5052531;28;20021;-73
2022/07/17 07:18:38;;;;;;;1.98;0.68;;;14.30;96.60;;;;;;5052764;28;20029;-74
2022/07/17 07:21:05;;;;;;;0.40;0.22;;;14.20;96.80;;;;;;5051839;28;20021;-75
2022/07/17 07:23:33;;;;;;;1.02;0.47;;;14.20;97.80;;;;;;5053210;28;20037;-74
2022/07/17 07:26:01;;;;;;;0.25;0.20;;;14.10;97.60;;;;;;5053232;28;20021;-75
2022/07/17 07:28:29;;;;;;;0.50;0.20;;;14.00;97.70;;;;;;5053152;28;20537;-74
2022/07/17 07:30:56;;;;;;;1.02;0.30;;;14.00;97.30;;;;;;5052219;28;20112;-76
2022/07/17 07:33:24;;;;;;;0.73;0.35;;;14.00;98.10;;;;;;5052653;28;20108;-76
2022/07/17 07:35:52;;;;;;;0.90;0.43;;;14.00;98.20;;;;;;5052788;28;20040;-77
2022/07/17 07:38:20;;;;;;;0.85;0.50;;;13.90;98.20;;;;;;5052357;28;20052;-73
2022/07/17 07:40:47;;;;;;;1.48;0.35;;;13.80;98.30;;;;;;5052891;28;20071;-74
2022/07/17 07:43:15;;;;;;;1.13;0.30;;;13.80;98.60;;;;;;5051412;28;20025;-75
2022/07/17 07:45:43;;;;;;;0.47;0.38;;;13.80;97.80;;;;;;5052568;28;20028;-76
2022/07/17 07:48:10;;;;;;;1.42;0.40;;;13.80;98.30;;;;;;5053096;28;20047;-75
2022/07/17 07:50:38;;;;;;;1.90;0.60;;;13.80;98.10;;;;;;5050956;28;20065;-78
2022/07/17 07:53:06;;;;;;;2.17;0.50;;;13.80;97.70;;;;;;5050873;28;20024;-73
2022/07/17 07:55:33;;;;;;;3.80;0.47;;;13.80;97.80;;;;;;5051084;28;20045;-74
2022/07/17 07:58:07;;;;;;;0.47;0.40;;;13.80;98.00;;;;;;5050579;28;20025;-73
2022/07/17 08:00:35;;;;;;;0.40;0.30;;;13.80;98.70;;;;;;5050929;28;20025;-73
2022/07/17 08:03:03;;;;;;;0.95;0.40;;;13.70;97.90;;;;;;5050634;28;20808;-73
2022/07/17 08:05:32;;;;;;;1.58;0.45;;;13.70;98.40;;;;;;5051218;28;20053;-74
2022/07/17 08:08:00;;;;;;;0.50;0.40;;;13.70;99.00;;;;;;5051731;28;20385;-72
2022/07/17 08:10:28;;;;;;;0.77;0.40;;;13.80;98.40;;;;;;5051342;28;20115;-72
2022/07/17 08:12:55;;;;;;;3.83;2.45;;;13.70;98.50;;;;;;5051491;28;20049;-73
2022/07/17 08:15:23;;;;;;;2.00;1.52;;;13.70;98.50;;;;;;5051645;28;20107;-72
2022/07/17 08:17:53;;;;;;;3.88;3.58;;;13.70;99.00;;;;;;5051718;28;20071;-73
2022/07/17 08:20:21;;;;;;;3.35;3.00;;;13.60;98.80;;;;;;5039234;28;20424;-73
2022/07/17 08:22:50;;;;;;;2.67;1.00;;;13.60;99.20;;;;;;5048117;28;20020;-74
2022/07/17 08:25:18;;;;;;;1.30;1.10;;;13.60;99.00;;;;;;5048533;28;20086;-74
2022/07/17 08:27:46;;;;;;;0.73;0.50;;;13.60;98.90;;;;;;5046793;28;20462;-74
2022/07/17 08:30:15;;;;;;;0.98;0.60;;;13.60;99.10;;;;;;5047885;28;20025;-74
2022/07/17 08:32:43;;;;;;;2.08;0.40;;;13.50;99.30;;;;;;5048103;28;20187;-75
2022/07/17 08:35:11;;;;;;;0.77;0.40;;;13.50;99.30;;;;;;5048231;28;20493;-74
2022/07/17 08:37:52;;;;;;;2.22;0.40;;;13.50;99.40;;;;;;5048518;28;20020;-75
2022/07/17 08:40:29;;;;;;;1.88;0.73;;;13.40;99.90;;;;;;5047861;28;20025;-74
2022/07/17 08:42:59;;;;;;;1.27;0.73;;;13.40;99.90;;;;;;5047332;28;20029;-74
2022/07/17 08:45:27;;;;;;;0.82;0.60;;;13.30;99.90;;;;;;5046748;28;20554;-74
2022/07/17 08:47:56;;;;;;;0.57;0.50;;;13.30;99.80;;;;;;5047908;28;20475;-75
2022/07/17 08:50:33;;;;;;;4.20;0.40;;;13.30;99.90;;;;;;5046506;28;20022;-75
2022/07/17 08:53:01;;;;;;;1.48;0.60;;;13.30;99.90;;;;;;5047931;28;20032;-76
2022/07/17 08:55:30;;;;;;;0.55;0.30;;;13.20;99.90;;;;;;5048107;28;20026;-75
2022/07/17 08:57:58;;;;;;;1.25;0.60;;;13.30;99.90;;;;;;5047554;28;20096;-75
2022/07/17 09:00:27;;;;;;;1.98;0.50;;;13.20;99.90;;;;;;5046843;28;20021;-74
2022/07/17 09:03:07;;;;;;;0.70;0.40;;;13.20;99.90;;;;;;5047455;28;20050;-75
2022/07/17 09:05:40;;;;;;;1.48;0.70;;;13.20;99.90;;;;;;5047904;28;20021;-74
2022/07/17 09:08:15;;;;;;;0.77;0.32;;;13.10;99.90;;;;;;5046837;28;20041;-75
2022/07/17 09:10:45;;;;;;;0.57;0.57;;;13.10;99.90;;;;;;5047791;28;20029;-75
2022/07/17 09:13:24;;;;;;;1.02;0.65;;;13.10;99.90;;;;;;5048498;28;20067;-76
2022/07/17 09:15:54;;;;;;;2.60;0.95;;;13.10;99.90;;;;;;5051912;28;20036;-76
2022/07/17 09:18:22;;;;;;;4.68;0.70;;;13.10;99.90;;;;;;5052025;28;20375;-76
2022/07/17 09:20:53;;;;;;;0.43;0.40;;;13.00;99.90;;;;;;5053049;28;20028;-76
2022/07/17 09:23:22;;;;;;;0.90;0.50;;;13.00;99.90;;;;;;5053232;28;20037;-74
2022/07/17 09:25:52;;;;;;;3.53;0.70;;;13.00;99.90;;;;;;5054261;28;20032;-76
2022/07/17 09:28:20;;;;;;;1.40;0.57;;;13.00;99.90;;;;;;5054659;28;20036;-76
2022/07/17 09:30:51;;;;;;;0.95;0.50;;;12.90;99.90;;;;;;5054263;28;20024;-76
2022/07/17 09:33:27;;;;;;;0.68;0.55;;;12.90;99.90;;;;;;5048141;28;20029;-74
2022/07/17 09:36:06;;;;;;;0.55;0.40;;;12.90;99.90;;;;;;5054202;28;20020;-75
2022/07/17 09:38:39;;;;;;;2.75;0.50;;;12.80;99.90;;;;;;5052479;28;20033;-75
2022/07/17 09:41:13;;;;;;;0.40;0.40;;;12.90;99.90;;;;;;5053794;28;20021;-75
2022/07/17 09:43:47;;;;;;;0.55;0.30;;;12.80;99.90;;;;;;5054104;28;20033;-76
2022/07/17 09:46:19;;;;;;;0.40;0.40;;;12.80;99.90;;;;;;5054025;28;20032;-76
2022/07/17 09:48:50;;;;;;;0.95;0.57;;;12.80;99.90;;;;;;5054281;28;20027;-75
2022/07/17 09:51:26;;;;;;;0.80;0.60;;;12.80;99.90;;;;;;5053897;28;20036;-74
2022/07/17 09:53:57;;;;;;;6.05;0.57;;;12.80;99.90;;;;;;5041134;28;20473;-75
2022/07/17 09:56:27;;;;;;;1.15;0.60;;;12.80;99.90;;;;;;5052980;28;20355;-75
2022/07/17 09:59:06;;;;;;;1.23;0.70;;;12.80;99.90;;;;;;5053360;28;20032;-75
2022/07/17 10:01:35;;;;;;;1.50;0.50;;;12.80;99.90;;;;;;5051088;28;20045;-74
2022/07/17 10:04:03;;;;;;;1.70;0.70;;;12.70;99.90;;;;;;5052362;28;20029;-75
2022/07/17 10:06:35;;;;;;;4.72;0.77;;;12.70;99.90;;;;;;5053100;28;20025;-75
2022/07/17 10:09:04;;;;;;;1.30;0.57;;;12.70;99.90;;;;;;5052942;28;20485;-75
2022/07/17 10:11:36;;;;;;;0.68;0.45;;;12.70;99.90;;;;;;5052727;28;20029;-74
2022/07/17 10:14:08;;;;;;;0.50;0.30;;;12.70;99.90;;;;;;5052763;28;20485;-75
2022/07/17 10:16:38;;;;;;;1.48;0.80;;;12.70;99.90;;;;;;5051858;28;20027;-75
2022/07/17 10:19:20;;;;;;;0.40;0.30;;;12.60;99.90;;;;;;5052954;28;20087;-75
2022/07/17 10:21:56;;;;;;;2.60;0.50;;;12.60;99.90;;;;;;5053353;28;20032;-75
2022/07/17 10:24:25;;;;;;;1.38;0.43;;;12.60;99.90;;;;;;5053531;28;20086;-73
2022/07/17 10:26:53;;;;;;;0.50;0.40;;;12.60;99.90;;;;;;5053557;28;20413;-74
2022/07/17 10:29:38;;;;;;;1.00;0.52;;;12.60;99.90;;;;;;5052271;28;20021;-74
2022/07/17 10:32:26;;;;;;;0.82;0.73;;;12.60;99.90;;;;;;5034245;28;20052;-75
2022/07/17 10:34:59;;;;;;;0.65;0.52;;;12.50;99.90;;;;;;5033195;28;20101;-74
2022/07/17 10:37:37;;;;;;;1.23;0.50;;;12.50;99.90;;;;;;5034860;28;20593;-73
2022/07/17 10:40:22;;;;;;;0.80;0.60;;;12.50;99.90;;;;;;5035505;28;20018;-73
2022/07/17 10:43:01;;;;;;;2.78;0.50;;;12.50;99.90;;;;;;5035257;28;20030;-74
2022/07/17 10:45:39;;;;;;;2.95;0.40;;;12.50;99.90;;;;;;5033858;28;20021;-74
2022/07/17 10:48:14;;;;;;;3.45;0.75;;;12.50;99.90;;;;;;5035346;28;20022;-74
2022/07/17 10:50:45;;;;;;;1.38;0.75;;;12.50;99.90;;;;;;5032711;28;20056;-74
2022/07/17 10:53:23;;;;;;;1.23;0.60;;;12.50;99.90;;;;;;5033468;28;20036;-73
2022/07/17 10:55:54;;;;;;;1.67;0.50;;;12.50;99.90;;;;;;5032396;28;20155;-76
2022/07/17 10:58:33;;;;;;;0.90;0.55;;;12.50;99.90;;;;;;5036347;28;20028;-74
2022/07/17 11:01:12;;;;;;;3.53;0.90;;;12.50;99.90;;;;;;5032944;28;20045;-75
2022/07/17 11:03:56;;;;;;;2.10;0.60;;;12.50;99.90;;;;;;5035108;28;20116;-75
2022/07/17 11:06:35;;;;;;;0.85;0.30;;;12.50;99.90;;;;;;5038792;28;20049;-75
2022/07/17 11:09:13;;;;;;;0.75;0.47;;;12.60;99.90;;;;;;5038748;28;20025;-74
2022/07/17 11:11:49;;;;;;;1.88;0.63;;;12.60;99.90;;;;;;5039403;28;20067;-75
2022/07/17 11:14:20;;;;;;;1.65;0.60;;;12.60;99.90;;;;;;5038032;28;20021;-74
2022/07/17 11:16:55;;;;;;;2.03;0.40;;;12.50;99.90;;;;;;5033922;28;20105;-74
2022/07/17 11:19:33;;;;;;;0.68;0.63;;;12.50;99.90;;;;;;5033435;28;20076;-72
2022/07/17 11:22:03;;;;;;;1.35;0.75;;;12.50;99.90;;;;;;5033761;28;20024;-72
2022/07/17 11:24:47;;;;;;;1.90;0.80;;;12.50;99.90;;;;;;5032467;28;20021;-72
2022/07/17 11:27:26;;;;;;;3.55;0.70;;;12.50;99.90;;;;;;5032314;28;20068;-73
2022/07/17 11:29:56;;;;;;;0.70;0.40;;;12.50;99.90;;;;;;5034306;28;20017;-74
2022/07/17 11:32:27;;;;;;;0.57;0.50;;;12.50;99.90;;;;;;5036029;28;20383;-73
2022/07/17 11:34:55;;;;;;;0.68;0.57;;;12.60;99.90;;;;;;5033454;28;20032;-74
2022/07/17 11:37:23;;;;;;;0.63;0.50;;;12.50;99.90;;;;;;5034650;28;20104;-74
2022/07/17 11:39:51;;;;;;;1.65;1.00;;;12.60;99.90;;;;;;5034822;28;20013;-75
2022/07/17 11:42:21;;;;;;;1.40;0.50;;;12.50;99.90;;;;;;5034392;28;20064;-76
2022/07/17 11:44:54;;;;;;;0.68;0.38;;;12.60;99.90;;;;;;5036111;28;20037;-75
2022/07/17 11:47:26;;;;;;;0.85;0.50;;;12.60;99.90;;;;;;5033859;28;20544;-75
2022/07/17 11:50:05;;;;;;;2.45;0.57;;;12.60;99.90;;;;;;5034509;28;20378;-75
2022/07/17 11:52:46;;;;;;;2.83;0.68;;;12.50;99.90;;;;;;5032698;28;20021;-74
2022/07/17 11:55:15;;;;;;;2.00;0.90;;;12.50;99.90;;;;;;5033102;28;20241;-75
2022/07/17 11:57:47;;;;;;;1.00;0.63;;;12.50;99.90;;;;;;5038101;28;20451;-76
2022/07/17 12:00:17;;;;;;;3.03;0.47;;;12.50;99.90;;;;;;5040165;28;20045;-74
2022/07/17 12:02:45;;;;;;;2.80;0.80;;;12.50;99.90;;;;;;5037427;28;20128;-76
2022/07/17 12:05:13;;;;;;;0.90;0.55;;;12.50;99.90;;;;;;5038672;28;20087;-75
2022/07/17 12:07:47;;;;;;;0.55;0.40;;;12.50;99.90;;;;;;5036704;28;20025;-75
2022/07/17 12:10:22;;;;;;;0.57;0.40;;;12.40;99.90;;;;;;5036836;28;20479;-75
2022/07/17 12:13:02;;;;;;;0.80;0.35;;;12.50;99.90;;;;;;5034445;28;20363;-75
2022/07/17 12:15:43;;;;;;;2.35;0.50;;;12.50;99.90;;;;;;5043142;28;20029;-75
2022/07/17 12:18:28;;;;;;;0.75;0.50;;;12.50;99.90;;;;;;5037839;28;20084;-75
2022/07/17 12:20:58;;;;;;;3.65;0.50;;;12.50;99.90;;;;;;5036705;28;20779;-76
2022/07/17 12:23:37;;;;;;;0.82;0.43;;;12.50;99.90;;;;;;5036547;28;20108;-74
2022/07/17 12:26:10;;;;;;;0.77;0.50;;;12.60;99.90;;;;;;5036181;28;20116;-74
2022/07/17 12:28:38;;;;;;;1.33;0.45;;;12.60;99.90;;;;;;5048928;28;20055;-75
2022/07/17 12:31:09;;;;;;;1.58;0.40;;;12.60;99.90;;;;;;5051647;28;20021;-75
2022/07/17 12:33:37;;;;;;;0.90;0.50;;;12.70;99.90;;;;;;5037058;28;20033;-75
2022/07/17 12:36:04;;;;;;;2.65;0.50;;;12.70;99.90;;;;;;5038368;28;20378;-75
2022/07/17 12:38:31;;;;;;;3.05;0.55;;;12.60;99.90;;;;;;5036305;28;20115;-75
2022/07/17 12:40:59;;;;;;;1.10;0.60;;;12.70;99.90;;;;;;5037018;28;20017;-75
2022/07/17 12:43:27;;;;;;;1.25;0.52;;;12.70;99.90;;;;;;5037590;28;20538;-76
2022/07/17 12:45:54;;;;;;;1.15;0.70;;;12.70;99.90;;;;;;5036818;28;20104;-74
2022/07/17 12:48:21;;;;;;;2.35;0.73;;;12.70;99.90;;;;;;5037558;28;20021;-74
2022/07/17 12:50:49;;;;;;;2.13;0.60;;;12.70;99.90;;;;;;5035791;28;20466;-76
2022/07/17 12:53:16;;;;;;;1.02;0.50;;;12.70;99.90;;;;;;5034953;28;20018;-75
2022/07/17 12:55:43;;;;;;;1.00;0.60;;;12.70;99.90;;;;;;5044783;28;20109;-75
2022/07/17 12:58:11;;;;;;;0.98;0.40;;;12.70;99.90;;;;;;5038723;28;20017;-74